sensor_id;sensor_type;location;lat;lon;timestamp;P1;durP1;ratioP1;P2;durP2;ratioP2
10617;SDS011;5356;43.526;26.534;2022-09-27T00:00:31;7.00;;;4.40;;
10617;SDS011;5356;43.526;26.534;2022-09-27T00:02:56;6.07;;;4.90;;
10617;SDS011;5356;43.526;26.534;2022-09-27T00:05:22;7.15;;;4.30;;
10617;SDS011;5356;43.526;26.534;2022-09-27T00:07:47;6.55;;;5.00;;
10617;SDS011;5356;43.526;26.534;2022-09-27T00:10:13;8.75;;;4.32;;
10617;SDS011;5356;43.526;26.534;2022-09-27T00:12:39;5.82;;;4.30;;
10617;SDS011;5356;43.526;26.534;2022-09-27T00:15:05;9.20;;;4.65;;
10617;SDS011;5356;43.526;26.534;2022-09-27T00:17:32;10.10;;;4.82;;
10617;SDS011;5356;43.526;26.534;2022-09-27T00:19:58;7.22;;;4.40;;
10617;SDS011;5356;43.526;26.534;2022-09-27T00:22:24;6.55;;;4.55;;
10617;SDS011;5356;43.526;26.534;2022-09-27T00:24:50;8.43;;;4.45;;
10617;SDS011;5356;43.526;26.534;2022-09-27T00:27:16;7.20;;;4.38;;
10617;SDS011;5356;43.526;26.534;2022-09-27T00:29:43;6.95;;;4.85;;
10617;SDS011;5356;43.526;26.534;2022-09-27T00:32:09;8.05;;;4.45;;
10617;SDS011;5356;43.526;26.534;2022-09-27T00:34:34;7.13;;;4.75;;
10617;SDS011;5356;43.526;26.534;2022-09-27T00:37:00;6.50;;;4.18;;
10617;SDS011;5356;43.526;26.534;2022-09-27T00:39:25;7.30;;;4.47;;
10617;SDS011;5356;43.526;26.534;2022-09-27T00:41:51;6.63;;;4.65;;
10617;SDS011;5356;43.526;26.534;2022-09-27T00:52:34;5.88;;;4.15;;
10617;SDS011;5356;43.526;26.534;2022-09-27T00:55:08;8.82;;;4.72;;
10617;SDS011;5356;43.526;26.534;2022-09-27T00:57:37;7.45;;;4.28;;
10617;SDS011;5356;43.526;26.534;2022-09-27T01:00:07;5.68;;;4.05;;
10617;SDS011;5356;43.526;26.534;2022-09-27T01:02:36;6.97;;;5.05;;
10617;SDS011;5356;43.526;26.534;2022-09-27T01:05:07;6.72;;;4.38;;
10617;SDS011;5356;43.526;26.534;2022-09-27T01:07:35;6.47;;;4.45;;
10617;SDS011;5356;43.526;26.534;2022-09-27T01:10:01;7.78;;;4.30;;
10617;SDS011;5356;43.526;26.534;2022-09-27T01:12:35;4.90;;;4.03;;
10617;SDS011;5356;43.526;26.534;2022-09-27T01:17:54;5.97;;;4.05;;
10617;SDS011;5356;43.526;26.534;2022-09-27T01:20:51;8.25;;;4.80;;
10617;SDS011;5356;43.526;26.534;2022-09-27T01:28:57;6.75;;;5.00;;
10617;SDS011;5356;43.526;26.534;2022-09-27T01:31:30;6.30;;;4.95;;
10617;SDS011;5356;43.526;26.534;2022-09-27T01:36:55;6.80;;;4.65;;
10617;SDS011;5356;43.526;26.534;2022-09-27T01:44:45;5.38;;;4.15;;
10617;SDS011;5356;43.526;26.534;2022-09-27T01:47:20;8.00;;;4.95;;
10617;SDS011;5356;43.526;26.534;2022-09-27T01:50:22;6.53;;;4.88;;
10617;SDS011;5356;43.526;26.534;2022-09-27T01:55:29;5.38;;;4.75;;
10617;SDS011;5356;43.526;26.534;2022-09-27T01:58:05;6.22;;;4.72;;
10617;SDS011;5356;43.526;26.534;2022-09-27T02:00:32;6.43;;;4.60;;
10617;SDS011;5356;43.526;26.534;2022-09-27T02:03:02;7.03;;;4.93;;
10617;SDS011;5356;43.526;26.534;2022-09-27T02:05:43;6.70;;;5.15;;
10617;SDS011;5356;43.526;26.534;2022-09-27T02:08:27;9.00;;;4.85;;
10617;SDS011;5356;43.526;26.534;2022-09-27T02:11:09;6.60;;;4.88;;
10617;SDS011;5356;43.526;26.534;2022-09-27T02:13:37;7.60;;;4.78;;
10617;SDS011;5356;43.526;26.534;2022-09-27T02:24:32;9.13;;;5.32;;
10617;SDS011;5356;43.526;26.534;2022-09-27T02:29:53;5.63;;;4.38;;
10617;SDS011;5356;43.526;26.534;2022-09-27T02:32:26;6.80;;;5.18;;
10617;SDS011;5356;43.526;26.534;2022-09-27T02:34:52;6.03;;;4.30;;
10617;SDS011;5356;43.526;26.534;2022-09-27T02:37:19;9.32;;;4.72;;
10617;SDS011;5356;43.526;26.534;2022-09-27T02:39:45;7.18;;;5.20;;
10617;SDS011;5356;43.526;26.534;2022-09-27T02:42:12;7.57;;;5.57;;
10617;SDS011;5356;43.526;26.534;2022-09-27T02:44:37;6.88;;;5.05;;
10617;SDS011;5356;43.526;26.534;2022-09-27T02:49:58;6.60;;;4.97;;
10617;SDS011;5356;43.526;26.534;2022-09-27T03:05:46;8.25;;;6.13;;
10617;SDS011;5356;43.526;26.534;2022-09-27T03:08:18;10.82;;;6.43;;
10617;SDS011;5356;43.526;26.534;2022-09-27T03:10:44;8.57;;;6.57;;
10617;SDS011;5356;43.526;26.534;2022-09-27T03:13:10;9.05;;;5.97;;
10617;SDS011;5356;43.526;26.534;2022-09-27T03:15:36;6.35;;;5.55;;
10617;SDS011;5356;43.526;26.534;2022-09-27T03:18:02;7.72;;;5.40;;
10617;SDS011;5356;43.526;26.534;2022-09-27T03:20:27;8.23;;;6.22;;
10617;SDS011;5356;43.526;26.534;2022-09-27T03:22:53;11.20;;;6.13;;
10617;SDS011;5356;43.526;26.534;2022-09-27T03:25:20;8.40;;;5.80;;
10617;SDS011;5356;43.526;26.534;2022-09-27T03:27:46;7.38;;;5.72;;
10617;SDS011;5356;43.526;26.534;2022-09-27T03:30:12;8.05;;;5.53;;
10617;SDS011;5356;43.526;26.534;2022-09-27T03:32:44;7.82;;;5.85;;
10617;SDS011;5356;43.526;26.534;2022-09-27T03:35:10;7.13;;;5.28;;
10617;SDS011;5356;43.526;26.534;2022-09-27T03:37:36;7.85;;;5.80;;
10617;SDS011;5356;43.526;26.534;2022-09-27T03:40:03;8.73;;;5.40;;
10617;SDS011;5356;43.526;26.534;2022-09-27T03:42:29;6.43;;;5.20;;
10617;SDS011;5356;43.526;26.534;2022-09-27T03:44:54;8.07;;;6.40;;
10617;SDS011;5356;43.526;26.534;2022-09-27T03:47:20;7.22;;;5.22;;
10617;SDS011;5356;43.526;26.534;2022-09-27T03:49:47;6.88;;;5.35;;
10617;SDS011;5356;43.526;26.534;2022-09-27T03:52:13;7.13;;;5.47;;
10617;SDS011;5356;43.526;26.534;2022-09-27T03:54:38;6.70;;;5.18;;
10617;SDS011;5356;43.526;26.534;2022-09-27T03:57:04;7.05;;;5.82;;
10617;SDS011;5356;43.526;26.534;2022-09-27T03:59:30;7.65;;;5.80;;
10617;SDS011;5356;43.526;26.534;2022-09-27T04:01:55;7.15;;;5.53;;
10617;SDS011;5356;43.526;26.534;2022-09-27T04:04:21;8.50;;;5.25;;
10617;SDS011;5356;43.526;26.534;2022-09-27T04:06:46;8.98;;;6.40;;
10617;SDS011;5356;43.526;26.534;2022-09-27T04:09:12;14.48;;;8.20;;
10617;SDS011;5356;43.526;26.534;2022-09-27T04:11:37;10.80;;;7.53;;
10617;SDS011;5356;43.526;26.534;2022-09-27T04:14:03;10.63;;;6.95;;
10617;SDS011;5356;43.526;26.534;2022-09-27T04:16:29;10.13;;;6.65;;
10617;SDS011;5356;43.526;26.534;2022-09-27T04:18:56;9.38;;;7.00;;
10617;SDS011;5356;43.526;26.534;2022-09-27T04:21:21;9.32;;;6.03;;
10617;SDS011;5356;43.526;26.534;2022-09-27T04:23:47;8.70;;;6.43;;
10617;SDS011;5356;43.526;26.534;2022-09-27T04:26:12;7.47;;;6.40;;
10617;SDS011;5356;43.526;26.534;2022-09-27T04:28:38;8.85;;;6.43;;
10617;SDS011;5356;43.526;26.534;2022-09-27T04:31:04;10.57;;;7.10;;
10617;SDS011;5356;43.526;26.534;2022-09-27T04:33:30;8.30;;;6.20;;
10617;SDS011;5356;43.526;26.534;2022-09-27T04:35:55;30.10;;;9.85;;
10617;SDS011;5356;43.526;26.534;2022-09-27T04:38:39;8.57;;;6.18;;
10617;SDS011;5356;43.526;26.534;2022-09-27T04:41:05;9.43;;;6.20;;
10617;SDS011;5356;43.526;26.534;2022-09-27T04:43:31;9.27;;;6.45;;
10617;SDS011;5356;43.526;26.534;2022-09-27T04:45:56;9.95;;;5.90;;
10617;SDS011;5356;43.526;26.534;2022-09-27T04:48:22;10.07;;;6.80;;
10617;SDS011;5356;43.526;26.534;2022-09-27T04:50:54;10.05;;;7.82;;
10617;SDS011;5356;43.526;26.534;2022-09-27T04:53:23;12.73;;;7.10;;
10617;SDS011;5356;43.526;26.534;2022-09-27T04:55:51;12.63;;;6.85;;
10617;SDS011;5356;43.526;26.534;2022-09-27T04:58:17;8.95;;;6.82;;
10617;SDS011;5356;43.526;26.534;2022-09-27T05:00:42;7.95;;;6.70;;
10617;SDS011;5356;43.526;26.534;2022-09-27T05:03:08;11.18;;;6.65;;
10617;SDS011;5356;43.526;26.534;2022-09-27T05:05:33;8.63;;;6.40;;
10617;SDS011;5356;43.526;26.534;2022-09-27T05:07:59;11.38;;;6.85;;
10617;SDS011;5356;43.526;26.534;2022-09-27T05:10:25;8.15;;;6.07;;
10617;SDS011;5356;43.526;26.534;2022-09-27T05:12:50;11.00;;;5.90;;
10617;SDS011;5356;43.526;26.534;2022-09-27T05:15:16;9.07;;;6.40;;
10617;SDS011;5356;43.526;26.534;2022-09-27T05:17:41;9.25;;;6.38;;
10617;SDS011;5356;43.526;26.534;2022-09-27T05:20:07;7.25;;;6.35;;
10617;SDS011;5356;43.526;26.534;2022-09-27T05:22:34;10.73;;;6.70;;
10617;SDS011;5356;43.526;26.534;2022-09-27T05:25:00;10.52;;;7.35;;
10617;SDS011;5356;43.526;26.534;2022-09-27T05:27:25;9.98;;;6.65;;
10617;SDS011;5356;43.526;26.534;2022-09-27T05:29:50;8.95;;;6.15;;
10617;SDS011;5356;43.526;26.534;2022-09-27T05:32:17;6.63;;;5.82;;
10617;SDS011;5356;43.526;26.534;2022-09-27T05:34:42;8.38;;;5.75;;
10617;SDS011;5356;43.526;26.534;2022-09-27T05:37:08;7.55;;;6.10;;
10617;SDS011;5356;43.526;26.534;2022-09-27T05:39:33;9.10;;;6.35;;
10617;SDS011;5356;43.526;26.534;2022-09-27T05:41:59;7.38;;;6.43;;
10617;SDS011;5356;43.526;26.534;2022-09-27T05:44:26;10.98;;;6.82;;
10617;SDS011;5356;43.526;26.534;2022-09-27T05:46:52;9.18;;;6.68;;
10617;SDS011;5356;43.526;26.534;2022-09-27T05:49:17;8.60;;;6.90;;
10617;SDS011;5356;43.526;26.534;2022-09-27T05:51:44;8.07;;;6.10;;
10617;SDS011;5356;43.526;26.534;2022-09-27T05:54:09;8.30;;;6.70;;
10617;SDS011;5356;43.526;26.534;2022-09-27T05:56:35;7.05;;;6.22;;
10617;SDS011;5356;43.526;26.534;2022-09-27T05:59:00;8.52;;;6.28;;
10617;SDS011;5356;43.526;26.534;2022-09-27T06:01:25;7.93;;;6.22;;
10617;SDS011;5356;43.526;26.534;2022-09-27T06:03:51;9.68;;;7.18;;
10617;SDS011;5356;43.526;26.534;2022-09-27T06:06:17;8.30;;;6.57;;
10617;SDS011;5356;43.526;26.534;2022-09-27T06:08:43;8.57;;;6.82;;
10617;SDS011;5356;43.526;26.534;2022-09-27T06:11:10;11.85;;;9.48;;
10617;SDS011;5356;43.526;26.534;2022-09-27T06:13:37;9.50;;;7.32;;
10617;SDS011;5356;43.526;26.534;2022-09-27T06:16:03;11.30;;;7.50;;
10617;SDS011;5356;43.526;26.534;2022-09-27T06:18:30;8.30;;;6.40;;
10617;SDS011;5356;43.526;26.534;2022-09-27T06:20:58;8.00;;;6.60;;
10617;SDS011;5356;43.526;26.534;2022-09-27T06:23:25;10.63;;;7.97;;
10617;SDS011;5356;43.526;26.534;2022-09-27T06:25:51;10.40;;;6.93;;
10617;SDS011;5356;43.526;26.534;2022-09-27T06:28:17;9.13;;;6.80;;
10617;SDS011;5356;43.526;26.534;2022-09-27T06:30:43;7.57;;;6.78;;
10617;SDS011;5356;43.526;26.534;2022-09-27T06:33:11;7.70;;;5.50;;
10617;SDS011;5356;43.526;26.534;2022-09-27T06:35:40;8.35;;;5.93;;
10617;SDS011;5356;43.526;26.534;2022-09-27T06:38:13;9.05;;;6.68;;
10617;SDS011;5356;43.526;26.534;2022-09-27T06:40:43;8.35;;;6.47;;
10617;SDS011;5356;43.526;26.534;2022-09-27T06:43:09;7.18;;;5.47;;
10617;SDS011;5356;43.526;26.534;2022-09-27T06:45:36;8.13;;;6.00;;
10617;SDS011;5356;43.526;26.534;2022-09-27T06:48:03;6.32;;;5.45;;
10617;SDS011;5356;43.526;26.534;2022-09-27T06:50:31;6.85;;;6.07;;
10617;SDS011;5356;43.526;26.534;2022-09-27T06:52:58;7.50;;;5.95;;
10617;SDS011;5356;43.526;26.534;2022-09-27T06:55:24;9.02;;;5.40;;
10617;SDS011;5356;43.526;26.534;2022-09-27T06:57:56;7.03;;;5.57;;
10617;SDS011;5356;43.526;26.534;2022-09-27T07:00:41;6.95;;;5.65;;
10617;SDS011;5356;43.526;26.534;2022-09-27T07:03:10;7.88;;;6.15;;
10617;SDS011;5356;43.526;26.534;2022-09-27T07:05:36;9.23;;;6.00;;
10617;SDS011;5356;43.526;26.534;2022-09-27T07:08:03;6.35;;;5.40;;
10617;SDS011;5356;43.526;26.534;2022-09-27T07:10:29;6.47;;;5.55;;
10617;SDS011;5356;43.526;26.534;2022-09-27T07:13:07;7.30;;;5.95;;
10617;SDS011;5356;43.526;26.534;2022-09-27T07:15:35;8.98;;;5.90;;
10617;SDS011;5356;43.526;26.534;2022-09-27T07:18:01;6.57;;;5.50;;
10617;SDS011;5356;43.526;26.534;2022-09-27T07:20:28;10.57;;;5.60;;
10617;SDS011;5356;43.526;26.534;2022-09-27T07:22:55;6.68;;;5.43;;
10617;SDS011;5356;43.526;26.534;2022-09-27T07:25:21;5.47;;;4.53;;
10617;SDS011;5356;43.526;26.534;2022-09-27T07:27:47;6.57;;;5.80;;
10617;SDS011;5356;43.526;26.534;2022-09-27T07:30:14;8.52;;;5.40;;
10617;SDS011;5356;43.526;26.534;2022-09-27T07:32:41;8.32;;;6.25;;
10617;SDS011;5356;43.526;26.534;2022-09-27T07:35:07;6.80;;;6.07;;
10617;SDS011;5356;43.526;26.534;2022-09-27T07:37:34;7.20;;;5.63;;
10617;SDS011;5356;43.526;26.534;2022-09-27T07:40:01;6.55;;;5.13;;
10617;SDS011;5356;43.526;26.534;2022-09-27T07:42:30;8.93;;;6.47;;
10617;SDS011;5356;43.526;26.534;2022-09-27T07:44:56;6.43;;;5.60;;
10617;SDS011;5356;43.526;26.534;2022-09-27T07:47:22;6.85;;;5.28;;
10617;SDS011;5356;43.526;26.534;2022-09-27T07:49:51;5.18;;;4.30;;
10617;SDS011;5356;43.526;26.534;2022-09-27T07:52:20;5.10;;;4.55;;
10617;SDS011;5356;43.526;26.534;2022-09-27T07:54:46;5.82;;;4.68;;
10617;SDS011;5356;43.526;26.534;2022-09-27T07:57:12;5.55;;;4.70;;
10617;SDS011;5356;43.526;26.534;2022-09-27T07:59:38;7.30;;;4.78;;
10617;SDS011;5356;43.526;26.534;2022-09-27T08:02:05;5.70;;;4.20;;
10617;SDS011;5356;43.526;26.534;2022-09-27T08:04:30;6.93;;;4.90;;
10617;SDS011;5356;43.526;26.534;2022-09-27T08:06:56;5.30;;;4.80;;
10617;SDS011;5356;43.526;26.534;2022-09-27T08:09:21;7.55;;;5.03;;
10617;SDS011;5356;43.526;26.534;2022-09-27T08:11:47;8.52;;;4.75;;
10617;SDS011;5356;43.526;26.534;2022-09-27T08:14:13;4.43;;;4.00;;
10617;SDS011;5356;43.526;26.534;2022-09-27T08:16:39;6.88;;;4.15;;
10617;SDS011;5356;43.526;26.534;2022-09-27T08:19:05;5.22;;;4.63;;
10617;SDS011;5356;43.526;26.534;2022-09-27T08:21:31;6.65;;;4.85;;
10617;SDS011;5356;43.526;26.534;2022-09-27T08:23:57;5.20;;;4.22;;
10617;SDS011;5356;43.526;26.534;2022-09-27T08:26:23;6.35;;;4.50;;
10617;SDS011;5356;43.526;26.534;2022-09-27T08:28:48;6.90;;;5.05;;
10617;SDS011;5356;43.526;26.534;2022-09-27T08:31:14;5.20;;;4.53;;
10617;SDS011;5356;43.526;26.534;2022-09-27T08:33:39;5.63;;;4.65;;
10617;SDS011;5356;43.526;26.534;2022-09-27T08:36:14;4.95;;;3.78;;
10617;SDS011;5356;43.526;26.534;2022-09-27T08:38:39;4.85;;;3.97;;
10617;SDS011;5356;43.526;26.534;2022-09-27T08:41:12;4.10;;;3.70;;
10617;SDS011;5356;43.526;26.534;2022-09-27T08:43:50;5.38;;;4.65;;
10617;SDS011;5356;43.526;26.534;2022-09-27T08:51:55;6.75;;;4.38;;
10617;SDS011;5356;43.526;26.534;2022-09-27T08:54:23;27.40;;;10.82;;
10617;SDS011;5356;43.526;26.534;2022-09-27T08:56:53;8.95;;;5.00;;
10617;SDS011;5356;43.526;26.534;2022-09-27T08:59:29;5.20;;;3.88;;
10617;SDS011;5356;43.526;26.534;2022-09-27T09:02:05;5.13;;;3.97;;
10617;SDS011;5356;43.526;26.534;2022-09-27T09:04:40;4.53;;;3.83;;
10617;SDS011;5356;43.526;26.534;2022-09-27T09:10:06;4.25;;;3.85;;
10617;SDS011;5356;43.526;26.534;2022-09-27T09:13:04;4.35;;;3.80;;
10617;SDS011;5356;43.526;26.534;2022-09-27T09:15:56;6.20;;;3.92;;
10617;SDS011;5356;43.526;26.534;2022-09-27T09:21:28;5.10;;;4.35;;
10617;SDS011;5356;43.526;26.534;2022-09-27T09:24:51;5.68;;;3.97;;
10617;SDS011;5356;43.526;26.534;2022-09-27T09:27:13;4.68;;;4.28;;
10617;SDS011;5356;43.526;26.534;2022-09-27T09:35:18;5.25;;;4.28;;
10617;SDS011;5356;43.526;26.534;2022-09-27T09:37:51;4.80;;;4.05;;
10617;SDS011;5356;43.526;26.534;2022-09-27T09:40:40;5.78;;;3.80;;
10617;SDS011;5356;43.526;26.534;2022-09-27T09:45:52;4.70;;;4.00;;
10617;SDS011;5356;43.526;26.534;2022-09-27T09:48:27;5.82;;;3.70;;
10617;SDS011;5356;43.526;26.534;2022-09-27T09:50:58;5.55;;;4.32;;
10617;SDS011;5356;43.526;26.534;2022-09-27T09:53:44;7.63;;;4.78;;
10617;SDS011;5356;43.526;26.534;2022-09-27T09:56:32;3.85;;;3.55;;
10617;SDS011;5356;43.526;26.534;2022-09-27T09:59:02;4.07;;;3.67;;
10617;SDS011;5356;43.526;26.534;2022-09-27T10:01:42;4.68;;;4.18;;
10617;SDS011;5356;43.526;26.534;2022-09-27T10:04:19;5.25;;;4.05;;
10617;SDS011;5356;43.526;26.534;2022-09-27T10:06:47;5.93;;;3.85;;
10617;SDS011;5356;43.526;26.534;2022-09-27T10:09:14;4.90;;;4.15;;
10617;SDS011;5356;43.526;26.534;2022-09-27T10:11:44;3.95;;;3.40;;
10617;SDS011;5356;43.526;26.534;2022-09-27T10:14:13;5.63;;;3.72;;
10617;SDS011;5356;43.526;26.534;2022-09-27T10:16:40;4.63;;;3.97;;
10617;SDS011;5356;43.526;26.534;2022-09-27T10:19:11;4.97;;;3.90;;
10617;SDS011;5356;43.526;26.534;2022-09-27T10:21:41;5.07;;;4.22;;
10617;SDS011;5356;43.526;26.534;2022-09-27T10:24:10;5.60;;;3.65;;
10617;SDS011;5356;43.526;26.534;2022-09-27T10:26:38;4.82;;;3.70;;
10617;SDS011;5356;43.526;26.534;2022-09-27T10:29:13;8.13;;;4.43;;
10617;SDS011;5356;43.526;26.534;2022-09-27T10:31:41;14.93;;;5.80;;
10617;SDS011;5356;43.526;26.534;2022-09-27T10:39:44;4.15;;;3.35;;
10617;SDS011;5356;43.526;26.534;2022-09-27T10:45:20;5.53;;;3.20;;
10617;SDS011;5356;43.526;26.534;2022-09-27T10:47:46;4.82;;;3.22;;
10617;SDS011;5356;43.526;26.534;2022-09-27T10:50:33;4.68;;;3.97;;
10617;SDS011;5356;43.526;26.534;2022-09-27T10:55:39;8.35;;;4.13;;
10617;SDS011;5356;43.526;26.534;2022-09-27T10:58:13;5.88;;;4.25;;
10617;SDS011;5356;43.526;26.534;2022-09-27T11:00:59;9.25;;;4.65;;
10617;SDS011;5356;43.526;26.534;2022-09-27T11:03:30;10.40;;;5.90;;
10617;SDS011;5356;43.526;26.534;2022-09-27T11:05:59;4.70;;;4.20;;
10617;SDS011;5356;43.526;26.534;2022-09-27T11:08:42;5.20;;;3.92;;
10617;SDS011;5356;43.526;26.534;2022-09-27T11:13:40;14.30;;;5.78;;
10617;SDS011;5356;43.526;26.534;2022-09-27T11:21:47;5.05;;;3.95;;
10617;SDS011;5356;43.526;26.534;2022-09-27T11:30:23;4.40;;;3.47;;
10617;SDS011;5356;43.526;26.534;2022-09-27T11:44:45;3.28;;;2.97;;
10617;SDS011;5356;43.526;26.534;2022-09-27T11:58:30;15.07;;;5.82;;
10617;SDS011;5356;43.526;26.534;2022-09-27T12:06:35;4.05;;;2.90;;
10617;SDS011;5356;43.526;26.534;2022-09-27T12:09:50;2.97;;;2.50;;
10617;SDS011;5356;43.526;26.534;2022-09-27T12:15:10;2.60;;;2.40;;
10617;SDS011;5356;43.526;26.534;2022-09-27T12:17:40;3.28;;;2.97;;
10617;SDS011;5356;43.526;26.534;2022-09-27T12:20:31;4.22;;;2.65;;
10617;SDS011;5356;43.526;26.534;2022-09-27T12:23:01;2.80;;;2.40;;
10617;SDS011;5356;43.526;26.534;2022-09-27T12:25:34;5.97;;;3.22;;
10617;SDS011;5356;43.526;26.534;2022-09-27T12:28:13;3.78;;;2.97;;
10617;SDS011;5356;43.526;26.534;2022-09-27T12:33:45;23.95;;;9.13;;
10617;SDS011;5356;43.526;26.534;2022-09-27T12:36:18;9.18;;;4.55;;
10617;SDS011;5356;43.526;26.534;2022-09-27T12:38:59;3.63;;;2.80;;
10617;SDS011;5356;43.526;26.534;2022-09-27T12:41:38;9.18;;;3.83;;
10617;SDS011;5356;43.526;26.534;2022-09-27T12:44:09;7.40;;;3.75;;
10617;SDS011;5356;43.526;26.534;2022-09-27T12:49:43;3.37;;;2.80;;
10617;SDS011;5356;43.526;26.534;2022-09-27T12:52:18;3.60;;;2.67;;
10617;SDS011;5356;43.526;26.534;2022-09-27T13:00:18;2.72;;;2.50;;
10617;SDS011;5356;43.526;26.534;2022-09-27T13:02:58;2.67;;;2.40;;
10617;SDS011;5356;43.526;26.534;2022-09-27T13:05:30;3.45;;;2.50;;
10617;SDS011;5356;43.526;26.534;2022-09-27T13:08:49;2.80;;;2.17;;
10617;SDS011;5356;43.526;26.534;2022-09-27T13:12:08;2.45;;;2.25;;
10617;SDS011;5356;43.526;26.534;2022-09-27T13:14:17;5.25;;;2.60;;
10617;SDS011;5356;43.526;26.534;2022-09-27T13:16:46;10.10;;;8.23;;
10617;SDS011;5356;43.526;26.534;2022-09-27T13:22:00;2.78;;;2.40;;
10617;SDS011;5356;43.526;26.534;2022-09-27T13:29:48;5.70;;;3.10;;
10617;SDS011;5356;43.526;26.534;2022-09-27T13:32:23;3.97;;;2.63;;
10617;SDS011;5356;43.526;26.534;2022-09-27T13:34:52;10.70;;;5.30;;
10617;SDS011;5356;43.526;26.534;2022-09-27T13:37:44;15.65;;;6.82;;
10617;SDS011;5356;43.526;26.534;2022-09-27T13:54:37;3.88;;;2.60;;
10617;SDS011;5356;43.526;26.534;2022-09-27T14:00:02;6.00;;;2.80;;
10617;SDS011;5356;43.526;26.534;2022-09-27T14:02:35;3.10;;;2.80;;
10617;SDS011;5356;43.526;26.534;2022-09-27T14:05:03;6.43;;;3.17;;
10617;SDS011;5356;43.526;26.534;2022-09-27T14:07:39;17.33;;;5.88;;
10617;SDS011;5356;43.526;26.534;2022-09-27T14:10:10;3.60;;;2.65;;
10617;SDS011;5356;43.526;26.534;2022-09-27T14:12:38;3.55;;;3.05;;
10617;SDS011;5356;43.526;26.534;2022-09-27T14:15:06;3.70;;;2.25;;
10617;SDS011;5356;43.526;26.534;2022-09-27T14:17:41;3.85;;;2.40;;
10617;SDS011;5356;43.526;26.534;2022-09-27T14:23:05;3.53;;;2.58;;
10617;SDS011;5356;43.526;26.534;2022-09-27T14:25:45;2.63;;;2.22;;
10617;SDS011;5356;43.526;26.534;2022-09-27T14:28:25;3.03;;;2.60;;
10617;SDS011;5356;43.526;26.534;2022-09-27T14:31:05;4.55;;;2.25;;
10617;SDS011;5356;43.526;26.534;2022-09-27T14:33:41;2.55;;;2.35;;
10617;SDS011;5356;43.526;26.534;2022-09-27T14:36:12;2.50;;;2.30;;
10617;SDS011;5356;43.526;26.534;2022-09-27T14:39:20;2.78;;;2.45;;
10617;SDS011;5356;43.526;26.534;2022-09-27T14:41:48;4.18;;;2.25;;
10617;SDS011;5356;43.526;26.534;2022-09-27T14:44:17;2.50;;;2.30;;
10617;SDS011;5356;43.526;26.534;2022-09-27T14:46:44;7.13;;;2.95;;
10617;SDS011;5356;43.526;26.534;2022-09-27T14:49:17;2.92;;;2.47;;
10617;SDS011;5356;43.526;26.534;2022-09-27T14:51:49;2.83;;;2.28;;
10617;SDS011;5356;43.526;26.534;2022-09-27T14:54:22;4.55;;;3.00;;
10617;SDS011;5356;43.526;26.534;2022-09-27T14:56:57;4.22;;;2.50;;
10617;SDS011;5356;43.526;26.534;2022-09-27T14:59:25;3.10;;;2.53;;
10617;SDS011;5356;43.526;26.534;2022-09-27T15:01:57;3.58;;;2.60;;
10617;SDS011;5356;43.526;26.534;2022-09-27T15:04:25;3.03;;;2.63;;
10617;SDS011;5356;43.526;26.534;2022-09-27T15:06:52;3.38;;;3.00;;
10617;SDS011;5356;43.526;26.534;2022-09-27T15:09:19;4.22;;;2.83;;
10617;SDS011;5356;43.526;26.534;2022-09-27T15:11:47;3.72;;;3.08;;
10617;SDS011;5356;43.526;26.534;2022-09-27T15:14:18;5.47;;;3.03;;
10617;SDS011;5356;43.526;26.534;2022-09-27T15:16:46;4.07;;;2.80;;
10617;SDS011;5356;43.526;26.534;2022-09-27T15:19:21;3.42;;;3.03;;
10617;SDS011;5356;43.526;26.534;2022-09-27T15:21:49;4.70;;;2.83;;
10617;SDS011;5356;43.526;26.534;2022-09-27T15:27:02;3.78;;;2.92;;
10617;SDS011;5356;43.526;26.534;2022-09-27T15:29:29;4.78;;;2.85;;
10617;SDS011;5356;43.526;26.534;2022-09-27T15:34:28;5.32;;;3.13;;
10617;SDS011;5356;43.526;26.534;2022-09-27T15:36:58;3.60;;;2.90;;
10617;SDS011;5356;43.526;26.534;2022-09-27T15:39:40;3.92;;;3.35;;
10617;SDS011;5356;43.526;26.534;2022-09-27T15:44:35;3.38;;;3.08;;
10617;SDS011;5356;43.526;26.534;2022-09-27T15:52:44;4.68;;;3.33;;
10617;SDS011;5356;43.526;26.534;2022-09-27T15:55:11;4.65;;;3.38;;
10617;SDS011;5356;43.526;26.534;2022-09-27T15:57:38;4.45;;;3.00;;
10617;SDS011;5356;43.526;26.534;2022-09-27T16:00:04;5.30;;;3.95;;
10617;SDS011;5356;43.526;26.534;2022-09-27T16:02:31;3.90;;;2.78;;
10617;SDS011;5356;43.526;26.534;2022-09-27T16:04:57;5.68;;;3.22;;
10617;SDS011;5356;43.526;26.534;2022-09-27T16:07:22;3.22;;;2.90;;
10617;SDS011;5356;43.526;26.534;2022-09-27T16:09:48;7.95;;;3.40;;
10617;SDS011;5356;43.526;26.534;2022-09-27T16:12:15;4.32;;;3.92;;
10617;SDS011;5356;43.526;26.534;2022-09-27T16:14:41;5.72;;;4.25;;
10617;SDS011;5356;43.526;26.534;2022-09-27T16:17:08;7.68;;;5.18;;
10617;SDS011;5356;43.526;26.534;2022-09-27T16:19:34;8.70;;;5.63;;
10617;SDS011;5356;43.526;26.534;2022-09-27T16:21:59;8.85;;;5.22;;
10617;SDS011;5356;43.526;26.534;2022-09-27T16:24:27;7.88;;;4.90;;
10617;SDS011;5356;43.526;26.534;2022-09-27T16:26:53;8.30;;;5.15;;
10617;SDS011;5356;43.526;26.534;2022-09-27T16:29:19;9.90;;;5.55;;
10617;SDS011;5356;43.526;26.534;2022-09-27T16:31:45;5.60;;;5.05;;
10617;SDS011;5356;43.526;26.534;2022-09-27T16:34:11;4.63;;;3.58;;
10617;SDS011;5356;43.526;26.534;2022-09-27T16:36:36;7.78;;;4.13;;
10617;SDS011;5356;43.526;26.534;2022-09-27T16:39:03;4.28;;;3.38;;
10617;SDS011;5356;43.526;26.534;2022-09-27T16:41:30;5.10;;;2.95;;
10617;SDS011;5356;43.526;26.534;2022-09-27T16:43:57;2.97;;;2.67;;
10617;SDS011;5356;43.526;26.534;2022-09-27T16:46:23;4.45;;;3.08;;
10617;SDS011;5356;43.526;26.534;2022-09-27T16:48:48;5.15;;;3.17;;
10617;SDS011;5356;43.526;26.534;2022-09-27T16:51:17;3.80;;;3.15;;
10617;SDS011;5356;43.526;26.534;2022-09-27T16:54:04;4.32;;;2.78;;
10617;SDS011;5356;43.526;26.534;2022-09-27T16:56:31;4.03;;;2.88;;
10617;SDS011;5356;43.526;26.534;2022-09-27T16:58:57;3.33;;;2.78;;
10617;SDS011;5356;43.526;26.534;2022-09-27T17:01:24;5.82;;;2.90;;
10617;SDS011;5356;43.526;26.534;2022-09-27T17:03:50;5.57;;;3.30;;
10617;SDS011;5356;43.526;26.534;2022-09-27T17:06:17;5.20;;;3.10;;
10617;SDS011;5356;43.526;26.534;2022-09-27T17:08:45;4.82;;;3.38;;
10617;SDS011;5356;43.526;26.534;2022-09-27T17:11:14;5.63;;;3.05;;
10617;SDS011;5356;43.526;26.534;2022-09-27T17:13:41;3.53;;;3.17;;
10617;SDS011;5356;43.526;26.534;2022-09-27T17:16:08;3.63;;;3.03;;
10617;SDS011;5356;43.526;26.534;2022-09-27T17:18:37;7.03;;;3.03;;
10617;SDS011;5356;43.526;26.534;2022-09-27T17:21:05;4.10;;;2.83;;
10617;SDS011;5356;43.526;26.534;2022-09-27T17:23:33;6.38;;;3.40;;
10617;SDS011;5356;43.526;26.534;2022-09-27T17:26:03;5.80;;;3.90;;
10617;SDS011;5356;43.526;26.534;2022-09-27T17:28:34;6.85;;;3.45;;
10617;SDS011;5356;43.526;26.534;2022-09-27T17:34:15;3.10;;;1.67;;
10617;SDS011;5356;43.526;26.534;2022-09-27T17:36:42;3.25;;;1.52;;
10617;SDS011;5356;43.526;26.534;2022-09-27T17:39:12;2.33;;;1.52;;
10617;SDS011;5356;43.526;26.534;2022-09-27T17:41:39;2.55;;;1.67;;
10617;SDS011;5356;43.526;26.534;2022-09-27T17:44:04;1.90;;;1.50;;
10617;SDS011;5356;43.526;26.534;2022-09-27T17:46:31;4.75;;;1.30;;
10617;SDS011;5356;43.526;26.534;2022-09-27T17:48:58;3.95;;;1.27;;
10617;SDS011;5356;43.526;26.534;2022-09-27T17:51:45;4.18;;;1.25;;
10617;SDS011;5356;43.526;26.534;2022-09-27T17:54:13;6.00;;;1.30;;
10617;SDS011;5356;43.526;26.534;2022-09-27T17:56:40;1.85;;;0.80;;
10617;SDS011;5356;43.526;26.534;2022-09-27T17:59:08;3.97;;;1.17;;
10617;SDS011;5356;43.526;26.534;2022-09-27T18:01:35;0.80;;;0.80;;
10617;SDS011;5356;43.526;26.534;2022-09-27T18:04:03;3.63;;;2.00;;
10617;SDS011;5356;43.526;26.534;2022-09-27T18:06:29;1.45;;;0.98;;
10617;SDS011;5356;43.526;26.534;2022-09-27T18:08:55;2.60;;;0.70;;